createdAt,value
2019-05-28T00:00:03.882Z,100729.33
2019-05-28T00:02:37.217Z,100733.66
2019-05-28T00:05:09.246Z,100730.99
2019-05-28T00:07:41.419Z,100733.55
2019-05-28T00:10:13.714Z,100734.73
2019-05-28T00:12:45.762Z,100735.37
2019-05-28T00:15:17.835Z,100739.23
2019-05-28T00:17:50.211Z,100737.38
2019-05-28T00:20:22.482Z,100739.64
2019-05-28T00:22:54.658Z,100746.61
2019-05-28T00:25:29.295Z,100744.55
2019-05-28T00:28:00.634Z,100750.38
2019-05-28T00:30:33.007Z,100754.14
2019-05-28T00:33:05.351Z,100748.52
2019-05-28T00:35:37.608Z,100758.00
2019-05-28T00:38:09.936Z,100751.17
2019-05-28T00:40:42.957Z,100754.14
2019-05-28T00:43:14.990Z,100753.72
2019-05-28T00:45:47.057Z,100749.03
2019-05-28T00:48:19.130Z,100750.13
2019-05-28T00:50:51.197Z,100762.45
2019-05-28T00:53:23.571Z,100756.27
2019-05-28T00:55:56.155Z,100762.07
2019-05-28T00:58:28.324Z,100761.52
2019-05-28T01:01:00.394Z,100756.08
2019-05-28T01:03:32.768Z,100762.85
2019-05-28T01:06:05.347Z,100756.10
2019-05-28T01:08:37.315Z,100752.45
2019-05-28T01:11:09.793Z,100754.34
2019-05-28T01:13:42.380Z,100754.52
2019-05-28T01:16:14.650Z,100753.83
2019-05-28T01:18:46.826Z,100753.99
2019-05-28T01:21:18.896Z,100752.95
2019-05-28T01:23:50.783Z,100753.53
2019-05-28T01:26:23.447Z,100755.80
2019-05-28T01:28:56.124Z,100758.38
2019-05-28T01:31:28.611Z,100756.31
2019-05-28T01:34:00.985Z,100760.14
2019-05-28T01:36:33.153Z,100760.83
2019-05-28T01:39:07.175Z,100760.52
2019-05-28T01:41:39.238Z,100752.03
2019-05-28T01:44:11.511Z,100761.42
2019-05-28T01:46:44.210Z,100755.19
2019-05-28T01:49:16.806Z,100760.59
2019-05-28T01:51:49.061Z,100756.27
2019-05-28T01:54:21.323Z,100757.48
2019-05-28T01:56:53.707Z,100754.86
2019-05-28T01:59:25.971Z,100752.80
2019-05-28T02:01:58.452Z,100759.03
2019-05-28T02:04:30.520Z,100754.00
2019-05-28T02:07:03.009Z,100759.35
2019-05-28T02:09:35.477Z,100761.44
2019-05-28T02:12:07.854Z,100760.03
2019-05-28T02:14:40.333Z,100767.14
2019-05-28T02:17:12.742Z,100764.51
2019-05-28T02:19:45.186Z,100769.03
2019-05-28T02:22:17.463Z,100770.73
2019-05-28T02:24:49.631Z,100773.73
2019-05-28T02:27:22.210Z,100779.46
2019-05-28T02:29:54.689Z,100776.69
2019-05-28T02:32:26.759Z,100777.00
2019-05-28T02:34:59.239Z,100779.05
2019-05-28T02:37:32.129Z,100777.13
2019-05-28T02:40:06.060Z,100781.12
2019-05-28T02:42:38.221Z,100782.16
2019-05-28T02:45:10.589Z,100776.77
2019-05-28T02:47:42.991Z,100776.24
2019-05-28T02:50:15.239Z,100777.61
2019-05-28T02:52:47.719Z,100773.13
2019-05-28T02:55:19.784Z,100768.96
2019-05-28T02:57:52.567Z,100777.41
2019-05-28T03:00:25.052Z,100776.52
2019-05-28T03:02:57.317Z,100774.80
2019-05-28T03:05:29.899Z,100779.27
2019-05-28T03:08:02.477Z,100783.44
2019-05-28T03:10:59.759Z,100783.56
2019-05-28T03:13:10.612Z,100781.46
2019-05-28T03:15:45.463Z,100790.56
2019-05-28T03:18:17.519Z,100790.66
2019-05-28T03:20:50.094Z,100789.52
2019-05-28T03:23:22.575Z,100789.63
2019-05-28T03:25:54.945Z,100794.47
2019-05-28T03:28:27.122Z,100795.06
2019-05-28T03:30:59.500Z,100796.52
2019-05-28T03:33:32.081Z,100791.03
2019-05-28T03:36:04.347Z,100790.95
2019-05-28T03:38:36.522Z,100790.42
2019-05-28T03:41:08.798Z,100800.40
2019-05-28T03:43:41.078Z,100791.58
2019-05-28T03:46:13.752Z,100795.27
2019-05-28T03:48:45.928Z,100795.11
2019-05-28T03:51:18.299Z,100795.66
2019-05-28T03:53:50.606Z,100802.52
2019-05-28T03:56:23.670Z,100798.77
2019-05-28T03:58:55.858Z,100802.81
2019-05-28T04:01:28.526Z,100801.47
2019-05-28T04:04:00.794Z,100798.49
2019-05-28T04:06:32.960Z,100795.80
2019-05-28T04:09:07.804Z,100799.37
2019-05-28T04:11:44.755Z,100800.97
2019-05-28T04:14:14.193Z,100798.59
2019-05-28T04:16:46.882Z,100800.77
2019-05-28T04:19:18.945Z,100805.41
2019-05-28T04:21:51.438Z,100801.11
2019-05-28T04:24:24.009Z,100809.00
2019-05-28T04:26:56.306Z,100808.50
2019-05-28T04:29:28.553Z,100812.92
2019-05-28T04:32:00.929Z,100812.76
2019-05-28T04:34:33.304Z,100819.98
2019-05-28T04:37:05.823Z,100819.41
2019-05-28T04:39:38.361Z,100819.75
2019-05-28T04:42:10.738Z,100824.86
2019-05-28T04:44:43.218Z,100825.89
2019-05-28T04:47:15.386Z,100826.16
2019-05-28T04:49:47.863Z,100824.25
2019-05-28T04:52:20.135Z,100833.04
2019-05-28T04:54:52.408Z,100835.30
2019-05-28T04:57:24.578Z,100833.91
2019-05-28T04:59:57.059Z,100836.38
2019-05-28T05:02:29.420Z,100829.86
2019-05-28T05:05:02.121Z,100835.00
2019-05-28T05:07:35.629Z,100839.72
2019-05-28T05:10:08.430Z,100838.62
2019-05-28T05:12:40.377Z,100836.05
2019-05-28T05:15:12.753Z,100838.10
2019-05-28T05:17:45.231Z,100841.13
2019-05-28T05:20:17.408Z,100841.95
2019-05-28T05:22:49.879Z,100845.09
2019-05-28T05:25:21.749Z,100846.27
2019-05-28T05:27:53.919Z,100841.85
2019-05-28T05:30:26.216Z,100847.02
2019-05-28T05:33:16.316Z,100848.05
2019-05-28T05:35:32.506Z,100853.20
2019-05-28T05:38:04.861Z,100855.20
2019-05-28T05:40:37.138Z,100855.77
2019-05-28T05:43:09.411Z,100847.72
2019-05-28T05:45:41.784Z,100848.93
2019-05-28T05:48:14.060Z,100855.14
2019-05-28T05:50:46.640Z,100858.38
2019-05-28T05:53:19.114Z,100856.85
2019-05-28T05:55:50.970Z,100857.84
2019-05-28T05:58:23.252Z,100860.58
2019-05-28T06:00:55.424Z,100853.33
2019-05-28T06:03:39.770Z,100867.20
2019-05-28T06:06:01.821Z,100864.64
2019-05-28T06:08:36.991Z,100870.86
2019-05-28T06:11:07.977Z,100873.23
2019-05-28T06:13:40.707Z,100866.72
2019-05-28T06:16:12.908Z,100877.81
2019-05-28T06:18:48.068Z,100881.02
2019-05-28T06:21:21.489Z,100875.42
2019-05-28T06:23:53.559Z,100890.25
2019-05-28T06:26:25.826Z,100894.39
2019-05-28T06:28:58.105Z,100895.81
2019-05-28T06:31:30.081Z,100896.20
2019-05-28T06:34:02.259Z,100895.09
2019-05-28T06:36:35.023Z,100898.38
2019-05-28T06:39:08.621Z,100897.86
2019-05-28T06:41:40.489Z,100897.09
2019-05-28T06:44:12.550Z,100897.63
2019-05-28T06:46:44.722Z,100900.09
2019-05-28T06:49:16.703Z,100893.83
2019-05-28T06:51:49.068Z,100896.44
2019-05-28T06:54:21.340Z,100899.81
2019-05-28T06:56:53.507Z,100899.08
2019-05-28T06:59:25.676Z,100898.55
2019-05-28T07:01:58.199Z,100890.84
2019-05-28T07:04:32.974Z,100894.00
2019-05-28T07:43:44.051Z,100893.27
2019-05-28T07:46:16.518Z,100900.11
2019-05-28T07:48:48.473Z,100893.34
2019-05-28T07:51:20.645Z,100892.10
2019-05-28T07:53:53.021Z,100892.72
2019-05-28T07:56:25.303Z,100898.16
2019-05-28T07:58:57.571Z,100895.94
2019-05-28T08:01:30.048Z,100894.95
2019-05-28T08:04:02.119Z,100896.04
2019-05-28T08:06:34.074Z,100893.19
2019-05-28T08:09:07.862Z,100891.61
2019-05-28T08:11:39.678Z,100888.23
2019-05-28T08:14:11.940Z,100890.16
2019-05-28T08:16:52.182Z,100883.97
2019-05-28T08:19:18.214Z,100889.31
2019-05-28T08:21:50.219Z,100885.33
2019-05-28T08:24:23.128Z,100878.27
2019-05-28T08:26:55.187Z,100887.31
2019-05-28T08:29:27.397Z,100883.66
2019-05-28T08:32:00.295Z,100881.08
2019-05-28T08:34:32.251Z,100878.94
2019-05-28T08:37:06.555Z,100876.29
2019-05-28T08:39:38.232Z,100875.17
2019-05-28T08:42:10.291Z,100880.70
2019-05-28T08:44:44.105Z,100876.53
2019-05-28T08:47:16.066Z,100878.96
2019-05-28T08:49:48.242Z,100872.02
2019-05-28T08:52:20.192Z,100873.89
2019-05-28T08:54:52.272Z,100875.16
2019-05-28T08:57:24.750Z,100881.03
2019-05-28T08:59:56.619Z,100880.75
2019-05-28T09:02:29.100Z,100879.39
2019-05-28T09:05:01.165Z,100877.11
2019-05-28T09:07:33.818Z,100881.18
2019-05-28T09:10:07.820Z,100879.33
2019-05-28T09:12:40.503Z,100881.23
2019-05-28T09:15:12.511Z,100870.94
2019-05-28T09:17:44.870Z,100870.99
2019-05-28T09:20:17.174Z,100877.20
2019-05-28T09:22:49.614Z,100874.01
2019-05-28T09:25:21.989Z,100874.83
2019-05-28T09:27:54.570Z,100865.78
2019-05-28T09:30:26.440Z,100867.52
2019-05-28T09:32:58.898Z,100871.50
2019-05-28T09:35:44.107Z,100865.77
2019-05-28T09:38:05.512Z,100861.89
2019-05-28T09:40:49.215Z,100864.20
2019-05-28T09:43:11.719Z,100853.92
2019-05-28T09:45:43.972Z,100856.67
2019-05-28T09:48:16.137Z,100862.75
2019-05-28T09:50:48.199Z,100858.62
2019-05-28T09:53:20.279Z,100855.23
2019-05-28T09:55:52.647Z,100860.86
2019-05-28T09:58:25.328Z,100858.66
2019-05-28T10:00:59.070Z,100852.05
2019-05-28T10:03:31.771Z,100846.38
2019-05-28T10:06:16.385Z,100843.27
2019-05-28T10:08:37.825Z,100839.98
2019-05-28T10:11:09.967Z,100844.19
2019-05-28T10:13:43.992Z,100846.73
2019-05-28T10:16:16.051Z,100845.94
2019-05-28T10:18:48.023Z,100845.00
2019-05-28T10:21:20.392Z,100841.27
2019-05-28T10:23:52.638Z,100844.03
2019-05-28T10:26:25.000Z,100837.39
2019-05-28T10:28:57.312Z,100837.66
2019-05-28T10:31:29.585Z,100838.39
2019-05-28T10:34:02.169Z,100839.16
2019-05-28T10:36:37.254Z,100834.94
2019-05-28T10:39:09.244Z,100831.70
2019-05-28T10:41:41.145Z,100830.27
2019-05-28T10:44:13.537Z,100821.73
2019-05-28T10:46:46.508Z,100822.88
2019-05-28T10:49:18.986Z,100808.45
2019-05-28T10:51:51.363Z,100803.06
2019-05-28T10:54:24.154Z,100809.14
2019-05-28T10:56:56.429Z,100807.07
2019-05-28T10:59:28.700Z,100807.10
2019-05-28T11:02:00.664Z,100811.98
2019-05-28T11:04:32.628Z,100808.67
2019-05-28T11:07:04.906Z,100811.66
2019-05-28T11:09:37.181Z,100810.83
2019-05-28T11:12:09.763Z,100809.73
2019-05-28T11:14:41.831Z,100800.91
2019-05-28T11:17:14.003Z,100803.20
2019-05-28T11:19:46.073Z,100805.19
2019-05-28T11:22:18.343Z,100792.17
2019-05-28T11:24:50.517Z,100791.65
2019-05-28T11:27:24.101Z,100794.86
2019-05-28T11:29:56.295Z,100792.89
2019-05-28T11:32:28.156Z,100787.04
2019-05-28T11:35:00.428Z,100784.64
2019-05-28T11:37:32.396Z,100776.98
2019-05-28T11:40:08.148Z,100777.06
2019-05-28T11:42:40.527Z,100774.39
2019-05-28T11:45:14.274Z,100781.45
2019-05-28T11:47:45.989Z,100777.20
2019-05-28T11:50:18.067Z,100783.54
2019-05-28T11:52:50.601Z,100782.17
2019-05-28T11:55:22.722Z,100774.91
2019-05-28T11:57:54.890Z,100770.51
2019-05-28T12:00:26.947Z,100770.98
2019-05-28T12:02:58.812Z,100769.33
2019-05-28T12:05:31.085Z,100778.41
2019-05-28T12:08:03.257Z,100774.09
2019-05-28T12:10:36.039Z,100775.05
2019-05-28T12:13:10.906Z,100780.85
2019-05-28T12:15:42.016Z,100768.79
2019-05-28T12:18:13.995Z,100767.56
2019-05-28T12:20:46.571Z,100762.63
2019-05-28T12:23:18.643Z,100765.16
2019-05-28T12:25:50.810Z,100763.32
2019-05-28T12:28:37.156Z,100751.90
2019-05-28T12:30:56.678Z,100748.66
2019-05-28T12:33:28.752Z,100749.78
2019-05-28T12:36:01.082Z,100743.97
2019-05-28T12:38:33.400Z,100743.41
2019-05-28T12:41:05.467Z,100742.40
2019-05-28T12:43:37.739Z,100735.87
2019-05-28T12:46:10.112Z,100739.31
2019-05-28T12:48:42.384Z,100741.41
2019-05-28T12:51:14.552Z,100734.83
2019-05-28T12:53:50.840Z,100728.72
2019-05-28T12:56:20.532Z,100736.81
2019-05-28T12:58:52.719Z,100737.25
2019-05-28T13:01:24.876Z,100734.61
2019-05-28T13:03:56.841Z,100733.64
2019-05-28T13:06:29.721Z,100729.52
2019-05-28T13:09:01.822Z,100721.18
2019-05-28T13:11:34.019Z,100724.82
2019-05-28T13:14:06.212Z,100721.27
2019-05-28T13:16:38.513Z,100726.02
2019-05-28T13:19:10.789Z,100722.02
2019-05-28T13:21:42.766Z,100716.05
2019-05-28T13:24:14.820Z,100716.89
2019-05-28T13:26:47.196Z,100708.72
2019-05-28T13:29:19.571Z,100704.23
2019-05-28T13:31:51.575Z,100704.97
2019-05-28T13:34:23.539Z,100696.38
2019-05-28T13:36:55.976Z,100697.31
2019-05-28T13:39:28.158Z,100692.00
2019-05-28T13:42:00.072Z,100701.52
2019-05-28T13:44:32.183Z,100695.25
2019-05-28T13:47:04.358Z,100702.18
2019-05-28T13:49:36.620Z,100710.67
2019-05-28T13:52:12.380Z,100699.35
2019-05-28T13:54:43.438Z,100708.23
2019-05-28T13:57:17.026Z,100696.23
2019-05-28T13:59:49.225Z,100698.20
2019-05-28T14:02:21.404Z,100699.06
2019-05-28T14:04:53.585Z,100695.00
2019-05-28T14:07:25.913Z,100680.16
2019-05-28T14:09:57.949Z,100692.10
2019-05-28T14:12:30.247Z,100687.95
2019-05-28T14:15:02.069Z,100681.92
2019-05-28T14:17:33.988Z,100690.97
2019-05-28T14:20:06.637Z,100685.06
2019-05-28T14:22:38.770Z,100678.34
2019-05-28T14:25:10.898Z,100675.81
2019-05-28T14:27:43.286Z,100676.71
2019-05-28T14:30:16.713Z,100670.58
2019-05-28T14:32:48.648Z,100667.64
2019-05-28T14:35:20.725Z,100666.64
2019-05-28T14:37:53.186Z,100663.63
2019-05-28T14:40:25.285Z,100671.80
2019-05-28T14:42:57.740Z,100663.86
2019-05-28T14:45:29.810Z,100665.59
2019-05-28T14:48:03.003Z,100663.78
2019-05-28T14:50:35.485Z,100659.12
2019-05-28T14:53:07.647Z,100657.51
2019-05-28T14:55:39.816Z,100661.89
2019-05-28T14:58:13.865Z,100659.58
2019-05-28T15:00:45.416Z,100656.95
2019-05-28T15:03:18.174Z,100655.55
2019-05-28T15:05:50.243Z,100657.73
2019-05-28T15:08:22.318Z,100660.03
2019-05-28T15:10:54.791Z,100657.78
2019-05-28T15:13:27.567Z,100659.56
2019-05-28T15:15:59.838Z,100654.80
2019-05-28T15:18:31.703Z,100653.97
2019-05-28T15:21:03.772Z,100645.84
2019-05-28T15:23:36.258Z,100652.06
2019-05-28T15:26:08.622Z,100646.33
2019-05-28T15:28:40.895Z,100651.34
2019-05-28T15:31:13.170Z,100646.96
2019-05-28T15:33:45.646Z,100648.49
2019-05-28T15:36:17.818Z,100650.63
2019-05-28T15:38:51.330Z,100648.20
2019-05-28T15:41:23.593Z,100641.91
2019-05-28T15:43:57.080Z,100648.56
2019-05-28T15:46:29.180Z,100647.70
2019-05-28T15:49:01.530Z,100647.70
2019-05-28T15:51:33.905Z,100640.87
2019-05-28T15:54:05.969Z,100643.77
2019-05-28T15:56:38.552Z,100641.66
2019-05-28T15:59:10.626Z,100638.12
2019-05-28T16:01:43.710Z,100642.51
2019-05-28T16:04:16.701Z,100638.17
2019-05-28T16:06:48.561Z,100637.98
2019-05-28T16:09:21.043Z,100636.63
2019-05-28T16:11:53.313Z,100634.53
2019-05-28T16:14:25.790Z,100627.22
2019-05-28T16:16:57.854Z,100622.97
2019-05-28T16:19:30.023Z,100624.30
2019-05-28T16:22:02.479Z,100619.35
2019-05-28T16:24:34.882Z,100616.61
2019-05-28T16:27:07.765Z,100618.88
2019-05-28T16:29:39.729Z,100614.65
2019-05-28T16:32:11.803Z,100612.97
2019-05-28T16:34:47.255Z,100611.40
2019-05-28T16:37:19.221Z,100606.40
2019-05-28T16:39:50.975Z,100603.37
2019-05-28T16:42:23.044Z,100595.92
2019-05-28T16:44:56.456Z,100601.97
2019-05-28T16:47:28.614Z,100601.31
2019-05-28T16:50:00.816Z,100600.48
2019-05-28T16:52:33.264Z,100601.84
2019-05-28T16:55:09.938Z,100600.07
2019-05-28T16:57:42.120Z,100595.59
2019-05-28T17:00:14.175Z,100596.75
2019-05-28T17:02:46.346Z,100594.41
2019-05-28T17:05:18.419Z,100593.00
2019-05-28T17:07:50.698Z,100597.34
2019-05-28T17:10:32.367Z,100597.13
2019-05-28T17:12:56.837Z,100599.19
2019-05-28T17:15:29.055Z,100592.06
2019-05-28T17:18:01.632Z,100598.31
2019-05-28T17:20:34.006Z,100603.20
2019-05-28T17:23:06.075Z,100598.11
2019-05-28T17:25:38.411Z,100603.32
2019-05-28T17:28:10.726Z,100600.57
2019-05-28T17:30:43.313Z,100600.35
2019-05-28T17:33:15.883Z,100604.13
2019-05-28T17:38:19.406Z,100599.27
2019-05-28T17:40:51.794Z,100606.33
2019-05-28T17:43:23.849Z,100605.98
2019-05-28T17:45:56.229Z,100604.83
2019-05-28T17:48:28.504Z,100608.66
2019-05-28T17:51:00.979Z,100605.86
2019-05-28T17:53:34.077Z,100609.13
2019-05-28T17:56:08.062Z,100610.16
2019-05-28T17:58:40.468Z,100608.55
2019-05-28T18:01:12.631Z,100612.83
2019-05-28T18:03:44.905Z,100618.23
2019-05-28T18:06:17.385Z,100621.25
2019-05-28T18:08:49.557Z,100615.69
2019-05-28T18:11:21.623Z,100626.22
2019-05-28T18:13:53.899Z,100629.27
2019-05-28T18:16:26.353Z,100625.39
2019-05-28T18:19:00.797Z,100629.27
2019-05-28T18:21:32.575Z,100633.47
2019-05-28T18:24:04.848Z,100631.32
2019-05-28T18:26:38.450Z,100636.70
2019-05-28T18:29:10.514Z,100629.61
2019-05-28T18:31:42.278Z,100641.41
2019-05-28T18:34:14.254Z,100640.23
2019-05-28T18:36:46.076Z,100644.58
2019-05-28T18:39:18.579Z,100644.14
2019-05-28T18:41:51.742Z,100653.39
2019-05-28T18:44:23.645Z,100649.30
2019-05-28T18:46:55.815Z,100645.81
2019-05-28T18:49:27.874Z,100652.05
2019-05-28T18:52:00.086Z,100645.46
2019-05-28T18:54:32.416Z,100646.89
2019-05-28T18:57:04.609Z,100648.89
2019-05-28T18:59:37.083Z,100646.53
2019-05-28T19:02:09.496Z,100648.23
2019-05-28T19:04:42.527Z,100652.28
2019-05-28T19:07:14.720Z,100650.59
2019-05-28T19:09:47.076Z,100651.11
2019-05-28T19:12:19.243Z,100650.01
2019-05-28T19:14:51.532Z,100642.76
2019-05-28T19:17:23.583Z,100642.94
2019-05-28T19:19:55.853Z,100642.62
2019-05-28T19:22:28.123Z,100641.22
2019-05-28T19:25:00.295Z,100634.98
2019-05-28T19:27:35.595Z,100635.19
2019-05-28T19:30:07.918Z,100632.11
2019-05-28T19:32:39.876Z,100635.93
2019-05-28T19:35:12.501Z,100636.44
2019-05-28T19:37:44.516Z,100629.54
2019-05-28T19:40:19.968Z,100638.33
2019-05-28T19:42:52.492Z,100630.91
2019-05-28T19:45:24.703Z,100624.89
2019-05-28T19:47:57.571Z,100630.64
2019-05-28T19:50:31.123Z,100628.28
2019-05-28T19:53:04.599Z,100626.27
2019-05-28T19:55:36.656Z,100626.27
2019-05-28T19:58:08.616Z,100631.11
2019-05-28T20:00:42.843Z,100636.76
2019-05-28T20:03:17.527Z,100630.05
2019-05-28T20:05:50.093Z,100637.84
2019-05-28T20:08:22.315Z,100640.84
2019-05-28T20:10:55.882Z,100640.42
2019-05-28T20:13:27.850Z,100644.81
2019-05-28T20:15:59.613Z,100642.97
2019-05-28T20:18:31.571Z,100641.78
2019-05-28T20:21:03.740Z,100646.52
2019-05-28T20:23:35.802Z,100643.48
2019-05-28T20:26:08.069Z,100645.96
2019-05-28T20:28:40.340Z,100649.93
2019-05-28T20:31:12.406Z,100653.09
2019-05-28T20:33:44.906Z,100647.42
2019-05-28T20:36:19.093Z,100655.12
2019-05-28T20:38:51.058Z,100659.05
2019-05-28T20:41:24.270Z,100659.05
2019-05-28T20:43:57.148Z,100662.77
2019-05-28T20:46:29.505Z,100663.15
2019-05-28T20:49:02.524Z,100652.47
2019-05-28T20:51:36.545Z,100664.89
2019-05-28T20:54:10.888Z,100654.80
2019-05-28T20:56:43.095Z,100655.42
2019-05-28T20:59:15.198Z,100650.19
2019-05-28T21:01:47.713Z,100650.72
2019-05-28T21:04:19.867Z,100649.20
2019-05-28T21:06:52.383Z,100648.13
2019-05-28T21:09:24.350Z,100646.42
2019-05-28T21:11:56.728Z,100644.01
2019-05-28T21:14:29.025Z,100641.73
2019-05-28T21:17:01.359Z,100640.34
2019-05-28T21:19:33.628Z,100643.45
2019-05-28T21:22:05.998Z,100649.27
2019-05-28T21:24:40.046Z,100645.75
2019-05-28T21:27:12.688Z,100649.49
2019-05-28T21:29:47.230Z,100650.97
2019-05-28T21:32:19.481Z,100647.44
2019-05-28T21:34:54.956Z,100651.52
2019-05-28T21:37:25.509Z,100645.14
2019-05-28T21:39:57.629Z,100641.75
2019-05-28T21:42:30.131Z,100639.93
2019-05-28T21:45:03.540Z,100649.02
2019-05-28T21:47:35.949Z,100647.30
2019-05-28T21:50:08.966Z,100653.64
2019-05-28T21:52:40.780Z,100643.59
2019-05-28T21:55:14.516Z,100645.05
2019-05-28T21:57:47.110Z,100642.31
2019-05-28T22:00:30.739Z,100645.31
2019-05-28T22:03:05.167Z,100646.61
2019-05-28T22:05:37.228Z,100647.66
2019-05-28T22:08:09.183Z,100646.86
2019-05-28T22:10:41.468Z,100645.30
2019-05-28T22:13:21.763Z,100645.88
2019-05-28T22:15:47.343Z,100651.66
2019-05-28T22:18:19.715Z,100647.55
2019-05-28T22:20:51.992Z,100656.11
2019-05-28T22:23:24.370Z,100653.56
2019-05-28T22:25:56.414Z,100647.03
2019-05-28T22:28:28.709Z,100650.04
2019-05-28T22:31:01.768Z,100643.37
2019-05-28T22:33:34.381Z,100644.60
2019-05-28T22:36:07.511Z,100642.58
2019-05-28T22:38:39.647Z,100640.72
2019-05-28T22:41:11.756Z,100635.75
2019-05-28T22:43:44.193Z,100645.81
2019-05-28T22:46:16.057Z,100644.26
2019-05-28T22:48:48.331Z,100646.34
2019-05-28T22:51:20.608Z,100646.86
2019-05-28T22:53:52.574Z,100646.72
2019-05-28T22:56:24.943Z,100644.44
2019-05-28T22:59:00.301Z,100641.84
2019-05-28T23:01:32.264Z,100639.25
2019-05-28T23:04:05.045Z,100644.99
2019-05-28T23:06:37.214Z,100641.72
2019-05-28T23:09:09.878Z,100637.25
2019-05-28T23:11:42.374Z,100641.92
2019-05-28T23:14:14.457Z,100636.94
2019-05-28T23:16:46.816Z,100635.19
2019-05-28T23:19:18.820Z,100627.77
2019-05-28T23:21:50.581Z,100631.78
2019-05-28T23:24:22.816Z,100627.81
2019-05-28T23:26:55.597Z,100632.30
2019-05-28T23:29:27.670Z,100632.48
2019-05-28T23:31:59.841Z,100628.38
2019-05-28T23:34:32.423Z,100628.70
2019-05-28T23:37:05.971Z,100625.28
2019-05-28T23:39:38.297Z,100633.59
2019-05-28T23:42:11.565Z,100628.75
2019-05-28T23:44:44.585Z,100629.63
2019-05-28T23:47:17.266Z,100626.34
2019-05-28T23:49:49.442Z,100628.23
2019-05-28T23:52:21.813Z,100627.22
2019-05-28T23:54:53.785Z,100626.86
2019-05-28T23:57:25.849Z,100634.46
2019-05-28T23:59:57.813Z,100630.67
